sensor_id;sensor_type;location;lat;lon;timestamp;temperature;humidity
41116;DHT22;26861;51.824;4.682;2023-05-07T00:02:48;21.10;87.90
41116;DHT22;26861;51.824;4.682;2023-05-07T00:05:13;20.60;65.80
41116;DHT22;26861;51.824;4.682;2023-05-07T00:10:06;21.00;60.90
41116;DHT22;26861;51.824;4.682;2023-05-07T00:12:32;21.30;88.40
41116;DHT22;26861;51.824;4.682;2023-05-07T00:15:00;20.90;58.40
41116;DHT22;26861;51.824;4.682;2023-05-07T00:19:52;21.20;88.00
41116;DHT22;26861;51.824;4.682;2023-05-07T00:34:29;20.90;88.40
41116;DHT22;26861;51.824;4.682;2023-05-07T00:41:48;21.10;87.50
41116;DHT22;26861;51.824;4.682;2023-05-07T00:44:14;20.20;53.60
41116;DHT22;26861;51.824;4.682;2023-05-07T00:46:40;20.90;88.30
41116;DHT22;26861;51.824;4.682;2023-05-07T00:49:06;21.10;88.60
41116;DHT22;26861;51.824;4.682;2023-05-07T00:54:00;21.20;88.80
41116;DHT22;26861;51.824;4.682;2023-05-07T00:58:53;21.20;88.80
41116;DHT22;26861;51.824;4.682;2023-05-07T01:01:18;20.40;88.50
41116;DHT22;26861;51.824;4.682;2023-05-07T01:03:44;20.30;88.40
41116;DHT22;26861;51.824;4.682;2023-05-07T01:06:10;21.00;55.50
41116;DHT22;26861;51.824;4.682;2023-05-07T01:08:39;20.50;88.80
41116;DHT22;26861;51.824;4.682;2023-05-07T01:11:06;20.70;88.50
41116;DHT22;26861;51.824;4.682;2023-05-07T01:13:32;20.70;59.50
41116;DHT22;26861;51.824;4.682;2023-05-07T01:15:58;20.70;69.70
41116;DHT22;26861;51.824;4.682;2023-05-07T01:18:25;20.70;89.00
41116;DHT22;26861;51.824;4.682;2023-05-07T01:20:52;20.90;76.20
41116;DHT22;26861;51.824;4.682;2023-05-07T01:25:53;20.60;89.10
41116;DHT22;26861;51.824;4.682;2023-05-07T01:30:49;20.70;55.70
41116;DHT22;26861;51.824;4.682;2023-05-07T01:33:19;21.10;88.60
41116;DHT22;26861;51.824;4.682;2023-05-07T01:35:48;20.80;86.70
41116;DHT22;26861;51.824;4.682;2023-05-07T01:38:16;20.80;55.30
41116;DHT22;26861;51.824;4.682;2023-05-07T01:40:42;20.80;88.80
41116;DHT22;26861;51.824;4.682;2023-05-07T01:43:08;20.70;89.00
41116;DHT22;26861;51.824;4.682;2023-05-07T01:45:35;20.60;62.30
41116;DHT22;26861;51.824;4.682;2023-05-07T01:48:02;20.80;55.80
41116;DHT22;26861;51.824;4.682;2023-05-07T01:50:28;20.90;76.30
41116;DHT22;26861;51.824;4.682;2023-05-07T01:52:54;21.00;88.60
41116;DHT22;26861;51.824;4.682;2023-05-07T01:55:19;21.00;70.10
41116;DHT22;26861;51.824;4.682;2023-05-07T01:57:45;20.30;74.30
41116;DHT22;26861;51.824;4.682;2023-05-07T02:00:12;20.80;73.60
41116;DHT22;26861;51.824;4.682;2023-05-07T02:02:38;21.00;89.80
41116;DHT22;26861;51.824;4.682;2023-05-07T02:05:04;20.60;89.20
41116;DHT22;26861;51.824;4.682;2023-05-07T02:07:30;20.50;89.80
41116;DHT22;26861;51.824;4.682;2023-05-07T02:09:56;20.20;89.50
41116;DHT22;26861;51.824;4.682;2023-05-07T02:14:49;20.70;89.70
41116;DHT22;26861;51.824;4.682;2023-05-07T02:19:41;21.00;74.00
41116;DHT22;26861;51.824;4.682;2023-05-07T02:29:25;20.80;73.20
41116;DHT22;26861;51.824;4.682;2023-05-07T02:34:18;20.40;78.70
41116;DHT22;26861;51.824;4.682;2023-05-07T02:36:44;20.60;77.50
41116;DHT22;26861;51.824;4.682;2023-05-07T02:39:09;20.70;79.00
41116;DHT22;26861;51.824;4.682;2023-05-07T02:41:35;20.50;80.00
41116;DHT22;26861;51.824;4.682;2023-05-07T02:44:01;20.80;80.80
41116;DHT22;26861;51.824;4.682;2023-05-07T02:46:26;20.50;81.30
41116;DHT22;26861;51.824;4.682;2023-05-07T02:48:52;20.70;82.20
41116;DHT22;26861;51.824;4.682;2023-05-07T02:51:21;20.70;83.40
41116;DHT22;26861;51.824;4.682;2023-05-07T02:56:14;20.70;76.00
41116;DHT22;26861;51.824;4.682;2023-05-07T02:58:40;20.40;85.00
41116;DHT22;26861;51.824;4.682;2023-05-07T03:01:08;20.80;56.00
41116;DHT22;26861;51.824;4.682;2023-05-07T03:03:34;20.10;85.30
41116;DHT22;26861;51.824;4.682;2023-05-07T03:06:00;20.40;85.90
41116;DHT22;26861;51.824;4.682;2023-05-07T03:08:26;20.60;85.60
41116;DHT22;26861;51.824;4.682;2023-05-07T03:10:52;20.40;85.50
41116;DHT22;26861;51.824;4.682;2023-05-07T03:13:18;20.80;85.20
41116;DHT22;26861;51.824;4.682;2023-05-07T03:15:44;20.80;85.30
41116;DHT22;26861;51.824;4.682;2023-05-07T03:23:03;20.30;66.30
41116;DHT22;26861;51.824;4.682;2023-05-07T03:27:56;20.80;85.20
41116;DHT22;26861;51.824;4.682;2023-05-07T03:30:22;20.70;85.30
41116;DHT22;26861;51.824;4.682;2023-05-07T03:32:49;20.50;85.40
41116;DHT22;26861;51.824;4.682;2023-05-07T03:35:15;20.50;85.60
41116;DHT22;26861;51.824;4.682;2023-05-07T03:42:36;20.50;59.70
41116;DHT22;26861;51.824;4.682;2023-05-07T03:45:02;20.40;83.20
41116;DHT22;26861;51.824;4.682;2023-05-07T03:47:28;20.40;86.30
41116;DHT22;26861;51.824;4.682;2023-05-07T03:49:54;20.60;86.60
41116;DHT22;26861;51.824;4.682;2023-05-07T03:52:20;20.50;86.50
41116;DHT22;26861;51.824;4.682;2023-05-07T03:54:52;20.50;54.30
41116;DHT22;26861;51.824;4.682;2023-05-07T03:57:19;20.70;86.90
41116;DHT22;26861;51.824;4.682;2023-05-07T03:59:45;20.70;86.90
41116;DHT22;26861;51.824;4.682;2023-05-07T04:07:04;20.40;82.80
41116;DHT22;26861;51.824;4.682;2023-05-07T04:09:30;20.50;87.00
41116;DHT22;26861;51.824;4.682;2023-05-07T04:11:56;20.20;86.70
41116;DHT22;26861;51.824;4.682;2023-05-07T04:14:22;20.60;86.90
41116;DHT22;26861;51.824;4.682;2023-05-07T04:16:48;20.70;86.90
41116;DHT22;26861;51.824;4.682;2023-05-07T04:19:14;20.40;87.00
41116;DHT22;26861;51.824;4.682;2023-05-07T04:21:40;20.50;87.10
41116;DHT22;26861;51.824;4.682;2023-05-07T04:26:32;20.40;87.30
41116;DHT22;26861;51.824;4.682;2023-05-07T04:31:26;20.40;78.40
41116;DHT22;26861;51.824;4.682;2023-05-07T04:36:18;20.10;87.20
41116;DHT22;26861;51.824;4.682;2023-05-07T04:38:44;20.40;87.20
41116;DHT22;26861;51.824;4.682;2023-05-07T04:41:12;20.30;54.70
41116;DHT22;26861;51.824;4.682;2023-05-07T04:43:38;20.40;87.40
41116;DHT22;26861;51.824;4.682;2023-05-07T04:48:32;20.40;83.20
41116;DHT22;26861;51.824;4.682;2023-05-07T04:50:58;20.60;87.20
41116;DHT22;26861;51.824;4.682;2023-05-07T04:53:24;20.50;87.30
41116;DHT22;26861;51.824;4.682;2023-05-07T04:55:55;20.10;87.50
41116;DHT22;26861;51.824;4.682;2023-05-07T04:58:22;20.40;76.70
41116;DHT22;26861;51.824;4.682;2023-05-07T05:00:49;20.30;87.80
41116;DHT22;26861;51.824;4.682;2023-05-07T05:03:15;20.50;87.80
41116;DHT22;26861;51.824;4.682;2023-05-07T05:05:40;20.30;87.60
41116;DHT22;26861;51.824;4.682;2023-05-07T05:08:06;20.30;86.80
41116;DHT22;26861;51.824;4.682;2023-05-07T05:10:32;20.10;82.80
41116;DHT22;26861;51.824;4.682;2023-05-07T05:15:24;20.50;75.60
41116;DHT22;26861;51.824;4.682;2023-05-07T05:22:42;20.10;63.40
41116;DHT22;26861;51.824;4.682;2023-05-07T05:27:34;21.90;55.70
41116;DHT22;26861;51.824;4.682;2023-05-07T05:32:26;20.20;87.20
41116;DHT22;26861;51.824;4.682;2023-05-07T06:08:57;20.10;88.90
41116;DHT22;26861;51.824;4.682;2023-05-07T06:11:22;19.70;88.80
41116;DHT22;26861;51.824;4.682;2023-05-07T06:13:48;20.40;87.00
41116;DHT22;26861;51.824;4.682;2023-05-07T06:16:14;20.20;55.70
41116;DHT22;26861;51.824;4.682;2023-05-07T06:21:06;20.20;89.40
41116;DHT22;26861;51.824;4.682;2023-05-07T06:23:31;20.20;68.00
41116;DHT22;26861;51.824;4.682;2023-05-07T06:57:36;20.10;89.40
41116;DHT22;26861;51.824;4.682;2023-05-07T07:00:02;20.40;88.70
41116;DHT22;26861;51.824;4.682;2023-05-07T07:02:28;20.10;89.30
41116;DHT22;26861;51.824;4.682;2023-05-07T07:19:30;20.10;89.50
41116;DHT22;26861;51.824;4.682;2023-05-07T07:21:56;20.10;65.60
41116;DHT22;26861;51.824;4.682;2023-05-07T07:51:08;20.10;85.70
41116;DHT22;26861;51.824;4.682;2023-05-07T07:58:27;20.50;90.20
41116;DHT22;26861;51.824;4.682;2023-05-07T08:00:53;20.50;90.20
41116;DHT22;26861;51.824;4.682;2023-05-07T08:05:48;20.40;65.60
41116;DHT22;26861;51.824;4.682;2023-05-07T08:20:26;20.40;60.90
41116;DHT22;26861;51.824;4.682;2023-05-07T08:30:10;20.40;80.60
41116;DHT22;26861;51.824;4.682;2023-05-07T08:32:36;20.40;90.50
41116;DHT22;26861;51.824;4.682;2023-05-07T08:35:02;20.00;60.20
41116;DHT22;26861;51.824;4.682;2023-05-07T08:42:20;20.50;58.40
41116;DHT22;26861;51.824;4.682;2023-05-07T08:44:51;20.70;90.80
41116;DHT22;26861;51.824;4.682;2023-05-07T08:47:19;20.40;90.70
41116;DHT22;26861;51.824;4.682;2023-05-07T08:52:12;20.60;64.80
41116;DHT22;26861;51.824;4.682;2023-05-07T08:54:38;20.40;56.60
41116;DHT22;26861;51.824;4.682;2023-05-07T08:59:30;20.50;88.10
41116;DHT22;26861;51.824;4.682;2023-05-07T09:01:56;20.50;69.20
41116;DHT22;26861;51.824;4.682;2023-05-07T09:09:17;20.80;55.50
41116;DHT22;26861;51.824;4.682;2023-05-07T09:19:04;21.00;80.20
41116;DHT22;26861;51.824;4.682;2023-05-07T09:26:22;21.20;59.50
41116;DHT22;26861;51.824;4.682;2023-05-07T09:28:48;21.00;90.80
41116;DHT22;26861;51.824;4.682;2023-05-07T09:31:14;21.30;84.70
41116;DHT22;26861;51.824;4.682;2023-05-07T09:33:40;20.40;59.70
41116;DHT22;26861;51.824;4.682;2023-05-07T09:36:07;21.20;58.40
41116;DHT22;26861;51.824;4.682;2023-05-07T09:38:33;21.50;90.70
41116;DHT22;26861;51.824;4.682;2023-05-07T09:43:35;21.60;90.40
41116;DHT22;26861;51.824;4.682;2023-05-07T09:46:14;21.20;65.50
41116;DHT22;26861;51.824;4.682;2023-05-07T09:48:43;21.50;90.50
41116;DHT22;26861;51.824;4.682;2023-05-07T09:53:58;21.10;58.40
41116;DHT22;26861;51.824;4.682;2023-05-07T09:56:27;21.40;58.00
41116;DHT22;26861;51.824;4.682;2023-05-07T09:58:54;21.50;90.60
41116;DHT22;26861;51.824;4.682;2023-05-07T10:01:21;21.60;58.30
41116;DHT22;26861;51.824;4.682;2023-05-07T10:03:49;21.70;60.50
41116;DHT22;26861;51.824;4.682;2023-05-07T10:08:42;24.30;59.40
41116;DHT22;26861;51.824;4.682;2023-05-07T10:11:09;21.70;58.20
41116;DHT22;26861;51.824;4.682;2023-05-07T10:16:04;22.40;58.30
41116;DHT22;26861;51.824;4.682;2023-05-07T10:18:33;21.80;59.40
41116;DHT22;26861;51.824;4.682;2023-05-07T10:21:16;21.90;58.20
41116;DHT22;26861;51.824;4.682;2023-05-07T10:23:45;21.80;90.30
41116;DHT22;26861;51.824;4.682;2023-05-07T10:26:14;21.80;90.50
41116;DHT22;26861;51.824;4.682;2023-05-07T10:28:46;22.00;58.30
41116;DHT22;26861;51.824;4.682;2023-05-07T10:31:47;21.80;68.70
41116;DHT22;26861;51.824;4.682;2023-05-07T10:34:21;21.70;87.40
41116;DHT22;26861;51.824;4.682;2023-05-07T10:36:49;22.00;58.60
41116;DHT22;26861;51.824;4.682;2023-05-07T10:39:16;22.40;90.90
41116;DHT22;26861;51.824;4.682;2023-05-07T10:41:42;22.40;90.60
41116;DHT22;26861;51.824;4.682;2023-05-07T10:44:08;22.40;90.90
41116;DHT22;26861;51.824;4.682;2023-05-07T10:46:34;22.20;90.90
41116;DHT22;26861;51.824;4.682;2023-05-07T10:52:20;22.50;91.00
41116;DHT22;26861;51.824;4.682;2023-05-07T10:54:47;22.10;90.90
41116;DHT22;26861;51.824;4.682;2023-05-07T10:59:57;22.70;91.10
41116;DHT22;26861;51.824;4.682;2023-05-07T11:05:24;22.40;56.70
41116;DHT22;26861;51.824;4.682;2023-05-07T11:08:00;22.40;56.80
41116;DHT22;26861;51.824;4.682;2023-05-07T11:15:45;22.30;59.80
41116;DHT22;26861;51.824;4.682;2023-05-07T11:18:13;22.30;60.00
41116;DHT22;26861;51.824;4.682;2023-05-07T11:26:08;22.30;58.00
41116;DHT22;26861;51.824;4.682;2023-05-07T11:28:41;22.20;58.00
41116;DHT22;26861;51.824;4.682;2023-05-07T11:31:07;22.30;91.90
41116;DHT22;26861;51.824;4.682;2023-05-07T11:33:34;22.30;60.60
41116;DHT22;26861;51.824;4.682;2023-05-07T11:36:01;22.30;60.80
41116;DHT22;26861;51.824;4.682;2023-05-07T11:38:35;22.30;74.50
41116;DHT22;26861;51.824;4.682;2023-05-07T11:41:02;22.70;92.00
41116;DHT22;26861;51.824;4.682;2023-05-07T11:43:31;22.60;92.00
41116;DHT22;26861;51.824;4.682;2023-05-07T11:46:11;22.70;78.70
41116;DHT22;26861;51.824;4.682;2023-05-07T11:48:38;22.60;60.80
41116;DHT22;26861;51.824;4.682;2023-05-07T11:51:05;22.60;70.50
41116;DHT22;26861;51.824;4.682;2023-05-07T11:53:40;22.70;58.70
41116;DHT22;26861;51.824;4.682;2023-05-07T11:56:10;22.70;58.70
41116;DHT22;26861;51.824;4.682;2023-05-07T11:58:36;22.60;92.10
41116;DHT22;26861;51.824;4.682;2023-05-07T12:01:02;22.40;91.90
41116;DHT22;26861;51.824;4.682;2023-05-07T12:03:28;22.60;92.20
41116;DHT22;26861;51.824;4.682;2023-05-07T12:05:54;22.70;84.50
41116;DHT22;26861;51.824;4.682;2023-05-07T12:08:21;22.30;70.30
41116;DHT22;26861;51.824;4.682;2023-05-07T12:10:49;22.70;92.10
41116;DHT22;26861;51.824;4.682;2023-05-07T12:13:24;22.70;59.10
41116;DHT22;26861;51.824;4.682;2023-05-07T12:15:54;22.30;61.50
41116;DHT22;26861;51.824;4.682;2023-05-07T12:18:21;22.90;85.10
41116;DHT22;26861;51.824;4.682;2023-05-07T12:20:48;22.70;71.70
41116;DHT22;26861;51.824;4.682;2023-05-07T12:23:14;22.60;92.40
41116;DHT22;26861;51.824;4.682;2023-05-07T12:25:42;22.60;62.10
41116;DHT22;26861;51.824;4.682;2023-05-07T12:28:17;22.70;86.20
41116;DHT22;26861;51.824;4.682;2023-05-07T12:30:45;22.30;92.40
41116;DHT22;26861;51.824;4.682;2023-05-07T12:35:40;22.30;91.60
41116;DHT22;26861;51.824;4.682;2023-05-07T12:38:14;22.70;59.70
41116;DHT22;26861;51.824;4.682;2023-05-07T12:40:43;22.70;91.40
41116;DHT22;26861;51.824;4.682;2023-05-07T12:43:19;22.90;92.50
41116;DHT22;26861;51.824;4.682;2023-05-07T12:45:50;22.50;68.80
41116;DHT22;26861;51.824;4.682;2023-05-07T12:50:42;22.60;92.40
41116;DHT22;26861;51.824;4.682;2023-05-07T12:53:11;22.80;62.20
41116;DHT22;26861;51.824;4.682;2023-05-07T12:55:45;22.60;59.40
41116;DHT22;26861;51.824;4.682;2023-05-07T13:03:09;22.70;92.30
41116;DHT22;26861;51.824;4.682;2023-05-07T13:05:35;22.50;92.40
41116;DHT22;26861;51.824;4.682;2023-05-07T13:08:01;22.40;92.40
41116;DHT22;26861;51.824;4.682;2023-05-07T13:10:27;22.50;92.40
41116;DHT22;26861;51.824;4.682;2023-05-07T13:12:53;22.90;92.40
41116;DHT22;26861;51.824;4.682;2023-05-07T13:15:19;22.40;92.30
41116;DHT22;26861;51.824;4.682;2023-05-07T13:20:12;22.40;92.40
41116;DHT22;26861;51.824;4.682;2023-05-07T13:22:39;22.90;92.50
41116;DHT22;26861;51.824;4.682;2023-05-07T13:25:05;22.40;92.30
41116;DHT22;26861;51.824;4.682;2023-05-07T13:29:57;22.60;92.40
41116;DHT22;26861;51.824;4.682;2023-05-07T13:32:23;22.40;92.30
41116;DHT22;26861;51.824;4.682;2023-05-07T13:34:51;22.80;92.20
41116;DHT22;26861;51.824;4.682;2023-05-07T13:37:17;22.90;92.30
41116;DHT22;26861;51.824;4.682;2023-05-07T13:39:43;22.80;92.50
41116;DHT22;26861;51.824;4.682;2023-05-07T13:42:08;22.50;92.40
41116;DHT22;26861;51.824;4.682;2023-05-07T13:44:35;22.40;92.40
41116;DHT22;26861;51.824;4.682;2023-05-07T13:47:01;22.80;92.40
41116;DHT22;26861;51.824;4.682;2023-05-07T13:49:27;22.40;92.40
41116;DHT22;26861;51.824;4.682;2023-05-07T13:51:53;22.50;92.40
41116;DHT22;26861;51.824;4.682;2023-05-07T13:56:45;22.40;92.30
41116;DHT22;26861;51.824;4.682;2023-05-07T14:04:06;22.50;90.60
41116;DHT22;26861;51.824;4.682;2023-05-07T14:06:33;22.50;92.10
41116;DHT22;26861;51.824;4.682;2023-05-07T14:08:58;22.80;92.20
41116;DHT22;26861;51.824;4.682;2023-05-07T14:11:25;22.40;81.60
41116;DHT22;26861;51.824;4.682;2023-05-07T14:18:42;22.70;92.10
41116;DHT22;26861;51.824;4.682;2023-05-07T14:21:08;22.60;84.00
41116;DHT22;26861;51.824;4.682;2023-05-07T14:23:35;22.70;92.10
41116;DHT22;26861;51.824;4.682;2023-05-07T14:26:01;22.30;92.10
41116;DHT22;26861;51.824;4.682;2023-05-07T14:28:27;22.70;92.10
41116;DHT22;26861;51.824;4.682;2023-05-07T14:30:53;22.60;92.00
41116;DHT22;26861;51.824;4.682;2023-05-07T14:33:19;22.30;91.90
41116;DHT22;26861;51.824;4.682;2023-05-07T14:38:14;22.70;80.40
41116;DHT22;26861;51.824;4.682;2023-05-07T14:40:41;22.60;91.80
41116;DHT22;26861;51.824;4.682;2023-05-07T14:43:07;22.90;91.80
41116;DHT22;26861;51.824;4.682;2023-05-07T14:45:32;22.80;91.60
41116;DHT22;26861;51.824;4.682;2023-05-07T14:50:24;22.60;67.60
41116;DHT22;26861;51.824;4.682;2023-05-07T14:55:15;22.90;90.00
41116;DHT22;26861;51.824;4.682;2023-05-07T14:57:41;22.70;91.70
41116;DHT22;26861;51.824;4.682;2023-05-07T15:00:07;22.60;91.80
41116;DHT22;26861;51.824;4.682;2023-05-07T15:02:34;22.60;91.80
41116;DHT22;26861;51.824;4.682;2023-05-07T15:12:18;22.40;90.60
41116;DHT22;26861;51.824;4.682;2023-05-07T15:24:29;22.90;78.70
41116;DHT22;26861;51.824;4.682;2023-05-07T15:26:55;22.60;91.80
41116;DHT22;26861;51.824;4.682;2023-05-07T15:29:20;22.80;91.70
41116;DHT22;26861;51.824;4.682;2023-05-07T15:31:46;23.30;91.80
41116;DHT22;26861;51.824;4.682;2023-05-07T15:34:12;22.80;91.40
41116;DHT22;26861;51.824;4.682;2023-05-07T15:41:32;23.50;91.30
41116;DHT22;26861;51.824;4.682;2023-05-07T15:43:58;22.80;91.50
41116;DHT22;26861;51.824;4.682;2023-05-07T15:46:25;23.20;91.70
41116;DHT22;26861;51.824;4.682;2023-05-07T15:48:52;23.00;87.70
41116;DHT22;26861;51.824;4.682;2023-05-07T15:51:18;23.00;91.80
41116;DHT22;26861;51.824;4.682;2023-05-07T15:56:12;23.20;80.50
41116;DHT22;26861;51.824;4.682;2023-05-07T15:58:38;22.70;89.70
41116;DHT22;26861;51.824;4.682;2023-05-07T16:05:57;22.60;92.10
41116;DHT22;26861;51.824;4.682;2023-05-07T16:08:26;22.60;92.20
41116;DHT22;26861;51.824;4.682;2023-05-07T16:15:45;22.90;92.40
41116;DHT22;26861;51.824;4.682;2023-05-07T16:18:12;22.60;92.40
41116;DHT22;26861;51.824;4.682;2023-05-07T16:20:41;22.60;89.80
41116;DHT22;26861;51.824;4.682;2023-05-07T16:25:35;22.80;92.10
41116;DHT22;26861;51.824;4.682;2023-05-07T16:28:00;22.90;75.10
41116;DHT22;26861;51.824;4.682;2023-05-07T16:30:26;22.80;92.10
41116;DHT22;26861;51.824;4.682;2023-05-07T16:40:10;23.00;61.90
41116;DHT22;26861;51.824;4.682;2023-05-07T16:42:37;23.10;92.80
41116;DHT22;26861;51.824;4.682;2023-05-07T16:45:03;22.30;92.60
41116;DHT22;26861;51.824;4.682;2023-05-07T16:47:29;22.50;92.70
41116;DHT22;26861;51.824;4.682;2023-05-07T16:54:47;22.90;90.70
41116;DHT22;26861;51.824;4.682;2023-05-07T16:57:12;22.40;90.80
41116;DHT22;26861;51.824;4.682;2023-05-07T16:59:39;22.40;77.60
41116;DHT22;26861;51.824;4.682;2023-05-07T17:02:05;23.00;92.70
41116;DHT22;26861;51.824;4.682;2023-05-07T17:04:31;22.90;92.80
41116;DHT22;26861;51.824;4.682;2023-05-07T17:06:57;22.40;92.70
41116;DHT22;26861;51.824;4.682;2023-05-07T17:14:16;22.40;92.00
41116;DHT22;26861;51.824;4.682;2023-05-07T17:16:42;23.00;92.10
41116;DHT22;26861;51.824;4.682;2023-05-07T17:19:08;23.00;77.80
41116;DHT22;26861;51.824;4.682;2023-05-07T17:28:53;23.00;89.40
41116;DHT22;26861;51.824;4.682;2023-05-07T17:31:18;22.70;70.40
41116;DHT22;26861;51.824;4.682;2023-05-07T17:43:28;22.50;89.70
41116;DHT22;26861;51.824;4.682;2023-05-07T17:48:20;22.50;81.90
41116;DHT22;26861;51.824;4.682;2023-05-07T17:55:42;22.80;57.80
41116;DHT22;26861;51.824;4.682;2023-05-07T17:58:09;23.10;91.90
41116;DHT22;26861;51.824;4.682;2023-05-07T18:00:35;22.40;91.70
41116;DHT22;26861;51.824;4.682;2023-05-07T18:03:01;22.70;60.40
41116;DHT22;26861;51.824;4.682;2023-05-07T18:05:27;22.80;91.90
41116;DHT22;26861;51.824;4.682;2023-05-07T18:07:53;22.40;91.80
41116;DHT22;26861;51.824;4.682;2023-05-07T18:10:19;22.10;91.70
41116;DHT22;26861;51.824;4.682;2023-05-07T18:15:11;22.40;91.70
41116;DHT22;26861;51.824;4.682;2023-05-07T18:17:36;22.40;91.70
41116;DHT22;26861;51.824;4.682;2023-05-07T18:20:03;22.70;89.70
41116;DHT22;26861;51.824;4.682;2023-05-07T18:25:01;22.50;91.60
41116;DHT22;26861;51.824;4.682;2023-05-07T18:34:47;20.00;59.30
41116;DHT22;26861;51.824;4.682;2023-05-07T18:39:38;22.30;91.50
41116;DHT22;26861;51.824;4.682;2023-05-07T18:42:04;22.40;60.40
41116;DHT22;26861;51.824;4.682;2023-05-07T18:44:30;22.50;59.90
41116;DHT22;26861;51.824;4.682;2023-05-07T18:49:22;22.60;72.00
41116;DHT22;26861;51.824;4.682;2023-05-07T18:56:41;20.80;59.40
41116;DHT22;26861;51.824;4.682;2023-05-07T18:59:07;22.30;91.60
41116;DHT22;26861;51.824;4.682;2023-05-07T19:01:32;22.70;89.90
41116;DHT22;26861;51.824;4.682;2023-05-07T19:08:50;22.50;91.50
41116;DHT22;26861;51.824;4.682;2023-05-07T19:13:42;22.60;80.20
41116;DHT22;26861;51.824;4.682;2023-05-07T19:18:38;22.40;60.40
41116;DHT22;26861;51.824;4.682;2023-05-07T19:21:04;22.10;68.20
41116;DHT22;26861;51.824;4.682;2023-05-07T19:23:31;22.40;68.00
41116;DHT22;26861;51.824;4.682;2023-05-07T19:25:57;22.60;91.70
41116;DHT22;26861;51.824;4.682;2023-05-07T19:28:23;22.30;91.60
41116;DHT22;26861;51.824;4.682;2023-05-07T19:30:51;22.20;91.00
41116;DHT22;26861;51.824;4.682;2023-05-07T19:33:17;22.90;58.70
41116;DHT22;26861;51.824;4.682;2023-05-07T19:35:43;21.90;91.40
41116;DHT22;26861;51.824;4.682;2023-05-07T19:40:35;22.10;91.70
41116;DHT22;26861;51.824;4.682;2023-05-07T19:45:27;22.20;91.70
41116;DHT22;26861;51.824;4.682;2023-05-07T19:47:52;22.60;91.60
41116;DHT22;26861;51.824;4.682;2023-05-07T19:50:18;22.60;81.90
41116;DHT22;26861;51.824;4.682;2023-05-07T20:00:04;22.50;91.40
41116;DHT22;26861;51.824;4.682;2023-05-07T20:02:30;22.40;91.60
41116;DHT22;26861;51.824;4.682;2023-05-07T20:04:56;22.30;81.60
41116;DHT22;26861;51.824;4.682;2023-05-07T20:31:42;22.10;80.70
41116;DHT22;26861;51.824;4.682;2023-05-07T20:36:34;21.80;73.60
41116;DHT22;26861;51.824;4.682;2023-05-07T20:48:49;22.40;91.60
41116;DHT22;26861;51.824;4.682;2023-05-07T20:51:14;22.20;91.70
41116;DHT22;26861;51.824;4.682;2023-05-07T20:53:40;21.60;89.20
41116;DHT22;26861;51.824;4.682;2023-05-07T21:05:53;22.00;59.40
41116;DHT22;26861;51.824;4.682;2023-05-07T21:10:45;22.00;91.70
41116;DHT22;26861;51.824;4.682;2023-05-07T21:15:37;22.00;91.70
41116;DHT22;26861;51.824;4.682;2023-05-07T21:18:03;21.90;91.70
41116;DHT22;26861;51.824;4.682;2023-05-07T21:20:29;21.90;91.60
41116;DHT22;26861;51.824;4.682;2023-05-07T21:27:46;21.80;91.70
41116;DHT22;26861;51.824;4.682;2023-05-07T21:32:38;21.80;91.60
41116;DHT22;26861;51.824;4.682;2023-05-07T21:35:04;21.70;70.50
41116;DHT22;26861;51.824;4.682;2023-05-07T21:39:57;21.70;91.70
41116;DHT22;26861;51.824;4.682;2023-05-07T21:42:23;22.10;91.80
41116;DHT22;26861;51.824;4.682;2023-05-07T21:44:49;21.90;91.80
41116;DHT22;26861;51.824;4.682;2023-05-07T21:47:15;21.60;91.70
41116;DHT22;26861;51.824;4.682;2023-05-07T21:52:13;21.50;91.60
41116;DHT22;26861;51.824;4.682;2023-05-07T21:54:39;21.90;78.80
41116;DHT22;26861;51.824;4.682;2023-05-07T21:57:05;21.60;91.60
41116;DHT22;26861;51.824;4.682;2023-05-07T22:01:59;21.40;74.40
41116;DHT22;26861;51.824;4.682;2023-05-07T22:04:25;21.70;91.60
41116;DHT22;26861;51.824;4.682;2023-05-07T22:06:50;21.50;89.70
41116;DHT22;26861;51.824;4.682;2023-05-07T22:38:29;21.90;91.80
41116;DHT22;26861;51.824;4.682;2023-05-07T22:40:54;22.00;91.80
41116;DHT22;26861;51.824;4.682;2023-05-07T22:43:20;22.00;68.70
41116;DHT22;26861;51.824;4.682;2023-05-07T22:50:38;21.50;91.80
41116;DHT22;26861;51.824;4.682;2023-05-07T22:53:04;21.70;59.40
41116;DHT22;26861;51.824;4.682;2023-05-07T23:00:23;21.70;91.70
41116;DHT22;26861;51.824;4.682;2023-05-07T23:10:07;21.10;91.70
41116;DHT22;26861;51.824;4.682;2023-05-07T23:12:33;21.80;91.90
41116;DHT22;26861;51.824;4.682;2023-05-07T23:14:59;21.30;91.80
41116;DHT22;26861;51.824;4.682;2023-05-07T23:17:24;21.50;87.90
41116;DHT22;26861;51.824;4.682;2023-05-07T23:29:34;21.50;57.80
41116;DHT22;26861;51.824;4.682;2023-05-07T23:32:00;21.50;58.10
41116;DHT22;26861;51.824;4.682;2023-05-07T23:36:52;21.70;75.70
41116;DHT22;26861;51.824;4.682;2023-05-07T23:39:18;21.60;89.00
41116;DHT22;26861;51.824;4.682;2023-05-07T23:41:44;21.20;78.70
41116;DHT22;26861;51.824;4.682;2023-05-07T23:44:11;20.90;91.70
41116;DHT22;26861;51.824;4.682;2023-05-07T23:49:04;21.20;72.50
